Terminal Aerodrome Forecast
Issued by NWS

Home | Current Version | Previous Version | Text Only | Print | Product List | Glossary On
Versions: 1 2 3 4 5 6 7 8 9 10 11 12 13 14
000
FTUS43 KMPX 190600 AAA
TAFRWF
TAF AMD
KRWF 190610Z 1906/2006 14007KT P6SM OVC025
     FM190900 16007KT P6SM OVC020
     FM191800 17009KT P6SM OVC040=

USA.gov is the U.S. government's official web portal to all federal, state and local government web resources and services.